createdAt,value
2022-10-25T00:02:00.606Z,98085.41
2022-10-25T00:05:03.753Z,98095.94
2022-10-25T00:08:06.258Z,98105.69
2022-10-25T00:11:14.379Z,98107.69
2022-10-25T00:14:19.157Z,98117.41
2022-10-25T00:17:21.392Z,98114.47
2022-10-25T00:20:23.378Z,98114.94
2022-10-25T00:23:25.137Z,98129.00
2022-10-25T00:26:27.545Z,98136.91
2022-10-25T00:29:29.411Z,98137.56
2022-10-25T00:32:31.324Z,98146.00
2022-10-25T00:35:36.302Z,98142.69
2022-10-25T00:38:39.085Z,98133.28
2022-10-25T00:41:45.728Z,98114.34
2022-10-25T00:45:01.877Z,98106.44
2022-10-25T00:48:05.362Z,98106.28
2022-10-25T00:51:07.452Z,98107.44
2022-10-25T00:54:11.990Z,98111.22
2022-10-25T00:57:17.106Z,98127.38
2022-10-25T01:00:19.791Z,98128.41
2022-10-25T01:03:23.291Z,98124.41
2022-10-25T01:06:58.121Z,98113.19
2022-10-25T01:10:00.116Z,98107.44
2022-10-25T01:13:02.473Z,98091.09
2022-10-25T01:16:33.415Z,98084.19
2022-10-25T01:20:14.311Z,98080.22
2022-10-25T01:23:42.270Z,98085.81
2022-10-25T01:27:11.352Z,98077.44
2022-10-25T01:30:20.717Z,98088.31
2022-10-25T01:33:33.262Z,98110.06
2022-10-25T01:36:41.116Z,98107.91
2022-10-25T01:39:53.972Z,98111.69
2022-10-25T01:42:58.625Z,98112.16
2022-10-25T01:46:18.711Z,98112.53
2022-10-25T01:49:27.855Z,98123.69
2022-10-25T01:52:29.903Z,98125.16
2022-10-25T01:55:35.198Z,98119.91
2022-10-25T01:58:49.154Z,98136.22
2022-10-25T02:02:10.835Z,98140.84
2022-10-25T02:05:58.114Z,98133.91
2022-10-25T02:09:30.680Z,98131.78
2022-10-25T02:12:40.968Z,98126.84
2022-10-25T02:15:51.749Z,98118.75
2022-10-25T02:19:03.104Z,98113.84
2022-10-25T02:22:08.404Z,98117.56
2022-10-25T02:25:10.452Z,98111.13
2022-10-25T02:28:13.347Z,98128.44
2022-10-25T02:31:17.756Z,98125.81
2022-10-25T02:34:19.653Z,98123.50
2022-10-25T02:37:21.461Z,98111.97
2022-10-25T02:40:23.232Z,98116.09
2022-10-25T02:43:24.975Z,98115.44
2022-10-25T02:46:26.781Z,98115.44
2022-10-25T02:49:28.745Z,98132.09
2022-10-25T02:52:31.347Z,98138.50
2022-10-25T02:55:33.192Z,98126.84
2022-10-25T02:58:36.665Z,98124.06
2022-10-25T03:01:54.817Z,98121.25
2022-10-25T03:04:56.574Z,98129.16
2022-10-25T03:07:58.282Z,98120.78
2022-10-25T03:11:00.135Z,98125.72
2022-10-25T03:14:01.829Z,98133.94
2022-10-25T03:17:03.583Z,98138.22
2022-10-25T03:20:05.806Z,98148.25
2022-10-25T03:23:07.797Z,98148.41
2022-10-25T03:26:09.482Z,98150.91
2022-10-25T03:29:11.259Z,98158.00
2022-10-25T03:32:13.297Z,98148.41
2022-10-25T03:35:15.170Z,98146.59
2022-10-25T03:38:17.160Z,98146.91
2022-10-25T03:41:18.854Z,98142.66
2022-10-25T03:44:20.716Z,98138.22
2022-10-25T03:47:22.497Z,98147.78
2022-10-25T03:50:24.257Z,98146.44
2022-10-25T03:53:26.105Z,98142.81
2022-10-25T03:56:27.802Z,98129.00
2022-10-25T03:59:29.490Z,98123.22
2022-10-25T04:02:31.252Z,98129.63
2022-10-25T04:05:33.153Z,98123.72
2022-10-25T04:08:34.906Z,98122.41
2022-10-25T04:11:36.689Z,98119.94
2022-10-25T04:14:38.374Z,98123.56
2022-10-25T04:17:40.212Z,98123.41
2022-10-25T04:20:41.944Z,98121.13
2022-10-25T04:23:43.687Z,98116.16
2022-10-25T04:26:45.525Z,98110.56
2022-10-25T04:29:47.291Z,98113.53
2022-10-25T04:32:49.804Z,98114.84
2022-10-25T04:35:58.140Z,98114.16
2022-10-25T04:39:00.338Z,98123.56
2022-10-25T04:42:02.180Z,98128.34
2022-10-25T04:45:04.426Z,98139.22
2022-10-25T04:48:06.456Z,98148.91
2022-10-25T04:51:09.688Z,98154.84
2022-10-25T04:54:14.855Z,98155.31
2022-10-25T04:57:16.795Z,98151.38
2022-10-25T05:00:18.704Z,98149.69
2022-10-25T05:03:21.275Z,98149.28
2022-10-25T05:06:25.698Z,98154.00
2022-10-25T05:09:27.744Z,98161.44
2022-10-25T05:12:29.401Z,98152.88
2022-10-25T05:15:31.137Z,98162.75
2022-10-25T05:18:33.907Z,98153.03
2022-10-25T05:21:35.795Z,98157.13
2022-10-25T05:24:37.677Z,98150.22
2022-10-25T05:27:39.492Z,98155.84
2022-10-25T05:30:42.766Z,98166.25
2022-10-25T05:33:45.444Z,98165.75
2022-10-25T05:36:47.411Z,98174.63
2022-10-25T05:39:49.163Z,98176.28
2022-10-25T05:42:51.066Z,98176.13
2022-10-25T05:46:01.979Z,98186.50
2022-10-25T05:49:04.202Z,98198.38
2022-10-25T05:52:07.034Z,98193.75
2022-10-25T05:55:09.458Z,98191.78
2022-10-25T05:58:11.198Z,98199.16
2022-10-25T06:01:17.564Z,98218.88
2022-10-25T06:04:19.438Z,98227.53
2022-10-25T06:07:21.163Z,98226.19
2022-10-25T06:10:23.145Z,98240.03
2022-10-25T06:13:24.914Z,98233.84
2022-10-25T06:16:26.850Z,98231.13
2022-10-25T06:19:28.582Z,98241.88
2022-10-25T06:22:30.751Z,98248.13
2022-10-25T06:25:32.563Z,98254.84
2022-10-25T06:28:35.169Z,98245.34
2022-10-25T06:31:36.983Z,98233.28
2022-10-25T06:34:38.815Z,98232.06
2022-10-25T06:37:40.653Z,98244.72
2022-10-25T06:40:42.410Z,98249.63
2022-10-25T06:43:48.994Z,98240.34
2022-10-25T06:50:12.659Z,98228.03
2022-10-25T06:53:14.810Z,98215.75
2022-10-25T06:56:16.761Z,98220.19
2022-10-25T06:59:20.578Z,98236.97
2022-10-25T07:02:22.639Z,98244.69
2022-10-25T07:05:25.358Z,98245.03
2022-10-25T07:08:27.136Z,98236.50
2022-10-25T07:11:31.296Z,98238.22
2022-10-25T07:14:33.057Z,98227.13
2022-10-25T07:17:34.975Z,98230.91
2022-10-25T07:20:36.902Z,98226.97
2022-10-25T07:23:42.498Z,98241.94
2022-10-25T07:26:44.414Z,98240.56
2022-10-25T07:29:46.269Z,98243.38
2022-10-25T07:32:48.024Z,98248.31
2022-10-25T07:36:09.932Z,98249.28
2022-10-25T07:39:12.792Z,98260.22
2022-10-25T07:42:14.540Z,98259.88
2022-10-25T07:45:20.309Z,98264.03
2022-10-25T07:48:25.506Z,98257.56
2022-10-25T07:51:27.388Z,98264.16
2022-10-25T07:54:29.216Z,98273.63
2022-10-25T07:57:33.827Z,98269.34
2022-10-25T08:00:36.964Z,98265.63
2022-10-25T08:03:38.949Z,98274.53
2022-10-25T08:06:42.000Z,98265.81
2022-10-25T08:09:44.302Z,98273.69
2022-10-25T08:12:46.902Z,98271.19
2022-10-25T08:15:53.347Z,98276.94
2022-10-25T08:18:55.510Z,98276.78
2022-10-25T08:21:58.719Z,98281.63
2022-10-25T08:25:00.989Z,98275.16
2022-10-25T08:28:02.872Z,98274.56
2022-10-25T08:31:05.575Z,98271.94
2022-10-25T08:34:08.277Z,98274.19
2022-10-25T08:37:13.173Z,98275.16
2022-10-25T08:40:32.025Z,98276.78
2022-10-25T08:43:55.968Z,98271.63
2022-10-25T08:47:10.165Z,98279.75
2022-10-25T08:50:27.294Z,98264.22
2022-10-25T08:53:36.720Z,98268.97
2022-10-25T08:56:46.601Z,98259.28
2022-10-25T08:59:55.945Z,98263.28
2022-10-25T09:03:00.885Z,98267.41
2022-10-25T09:06:02.807Z,98259.41
2022-10-25T09:09:29.159Z,98266.22
2022-10-25T09:12:42.334Z,98261.97
2022-10-25T09:16:22.823Z,98271.09
2022-10-25T09:19:28.164Z,98266.25
2022-10-25T09:22:46.593Z,98267.72
2022-10-25T09:26:21.660Z,98275.09
2022-10-25T09:29:33.041Z,98279.22
2022-10-25T09:32:42.334Z,98283.84
2022-10-25T09:35:53.707Z,98287.53
2022-10-25T09:38:59.181Z,98283.59
2022-10-25T09:42:01.789Z,98283.84
2022-10-25T09:45:09.384Z,98288.13
2022-10-25T09:48:27.154Z,98292.88
2022-10-25T09:51:38.354Z,98289.97
2022-10-25T09:54:46.575Z,98289.09
2022-10-25T09:57:49.106Z,98292.94
2022-10-25T10:00:53.214Z,98292.63
2022-10-25T10:04:00.081Z,98293.34
2022-10-25T10:07:07.403Z,98294.63
2022-10-25T10:10:11.173Z,98299.19
2022-10-25T10:13:50.995Z,98298.28
2022-10-25T10:16:55.471Z,98297.38
2022-10-25T10:20:14.154Z,98294.47
2022-10-25T10:23:16.366Z,98286.59
2022-10-25T10:26:29.192Z,98278.47
2022-10-25T10:29:33.018Z,98278.66
2022-10-25T10:32:37.400Z,98284.59
2022-10-25T10:35:39.762Z,98290.72
2022-10-25T10:38:42.300Z,98296.38
2022-10-25T10:42:17.768Z,98290.13
2022-10-25T10:45:20.369Z,98293.09
2022-10-25T10:48:23.318Z,98308.34
2022-10-25T10:51:44.663Z,98296.13
2022-10-25T10:54:48.175Z,98298.88
2022-10-25T10:57:53.318Z,98300.22
2022-10-25T11:01:12.977Z,98295.97
2022-10-25T11:04:14.957Z,98288.91
2022-10-25T11:07:31.300Z,98292.66
2022-10-25T11:10:34.637Z,98279.47
2022-10-25T11:13:37.722Z,98274.00
2022-10-25T11:16:58.428Z,98282.97
2022-10-25T11:20:09.200Z,98282.06
2022-10-25T11:23:17.252Z,98280.59
2022-10-25T11:26:49.793Z,98282.41
2022-10-25T11:30:20.817Z,98281.22
2022-10-25T11:33:51.521Z,98271.69
2022-10-25T11:37:17.653Z,98271.75
2022-10-25T11:40:30.344Z,98269.09
2022-10-25T11:43:50.420Z,98268.25
2022-10-25T11:46:58.963Z,98274.94
2022-10-25T11:50:29.442Z,98269.19
2022-10-25T11:53:50.303Z,98262.88
2022-10-25T11:57:01.612Z,98261.84
2022-10-25T12:00:16.562Z,98258.13
2022-10-25T12:03:43.626Z,98268.09
2022-10-25T12:06:52.680Z,98279.81
2022-10-25T12:09:55.359Z,98273.41
2022-10-25T12:13:23.683Z,98283.22
2022-10-25T12:16:25.999Z,98288.09
2022-10-25T12:19:30.604Z,98279.47
2022-10-25T12:22:43.948Z,98282.91
2022-10-25T12:26:08.824Z,98287.88
2022-10-25T12:29:21.869Z,98281.41
2022-10-25T12:32:32.622Z,98286.13
2022-10-25T12:35:39.971Z,98290.25
2022-10-25T12:38:43.011Z,98290.06
2022-10-25T12:41:51.943Z,98275.63
2022-10-25T12:44:56.936Z,98279.38
2022-10-25T12:48:20.854Z,98288.06
2022-10-25T12:51:28.861Z,98286.34
2022-10-25T12:54:33.905Z,98280.44
2022-10-25T12:57:54.851Z,98286.03
2022-10-25T13:01:13.484Z,98287.66
2022-10-25T13:04:27.975Z,98288.34
2022-10-25T13:07:32.363Z,98283.44
2022-10-25T13:10:43.431Z,98282.03
2022-10-25T13:13:54.305Z,98290.22
2022-10-25T13:17:18.244Z,98290.53
2022-10-25T13:20:20.409Z,98304.06
2022-10-25T13:23:58.634Z,98305.84
2022-10-25T13:27:12.864Z,98313.72
2022-10-25T13:30:27.364Z,98316.09
2022-10-25T13:33:33.454Z,98309.56
2022-10-25T13:36:56.791Z,98306.38
2022-10-25T13:40:06.965Z,98300.63
2022-10-25T13:43:20.589Z,98305.78
2022-10-25T13:46:38.191Z,98310.28
2022-10-25T13:49:43.793Z,98308.25
2022-10-25T13:53:25.172Z,98311.31
2022-10-25T13:56:30.082Z,98315.41
2022-10-25T13:59:58.751Z,98313.03
2022-10-25T14:03:09.931Z,98315.69
2022-10-25T14:06:22.838Z,98314.41
2022-10-25T14:09:27.808Z,98317.44
2022-10-25T14:12:31.369Z,98318.28
2022-10-25T14:16:04.238Z,98318.00
2022-10-25T14:19:15.346Z,98320.81
2022-10-25T14:22:25.234Z,98326.00
2022-10-25T14:25:40.211Z,98323.34
2022-10-25T14:28:42.480Z,98322.78
2022-10-25T14:31:45.781Z,98318.22
2022-10-25T14:34:51.774Z,98327.22
2022-10-25T14:37:54.917Z,98318.81
2022-10-25T14:41:02.603Z,98311.75
2022-10-25T14:44:22.071Z,98309.66
2022-10-25T14:47:27.005Z,98322.22
2022-10-25T14:50:29.849Z,98318.41
2022-10-25T14:53:31.817Z,98319.34
2022-10-25T14:56:40.200Z,98322.00
2022-10-25T14:59:51.655Z,98312.41
2022-10-25T15:02:57.166Z,98315.06
2022-10-25T15:05:59.628Z,98310.47
2022-10-25T15:09:40.726Z,98316.13
2022-10-25T15:12:31.704Z,98312.53
2022-10-25T15:15:40.822Z,98314.94
2022-10-25T15:18:42.819Z,98314.66
2022-10-25T15:21:50.524Z,98321.59
2022-10-25T15:24:52.422Z,98330.28
2022-10-25T15:27:55.162Z,98326.09
2022-10-25T15:31:01.361Z,98326.97
2022-10-25T15:34:04.769Z,98333.28
2022-10-25T15:37:15.473Z,98343.69
2022-10-25T15:40:18.508Z,98337.63
2022-10-25T15:43:20.836Z,98332.69
2022-10-25T15:46:33.792Z,98332.19
2022-10-25T15:49:36.106Z,98331.34
2022-10-25T15:52:38.189Z,98342.41
2022-10-25T15:55:40.035Z,98344.22
2022-10-25T15:58:42.399Z,98341.13
2022-10-25T16:01:46.370Z,98334.84
2022-10-25T16:04:48.887Z,98334.84
2022-10-25T16:07:51.675Z,98331.88
2022-10-25T16:10:53.930Z,98334.16
2022-10-25T16:13:56.069Z,98337.13
2022-10-25T16:17:01.319Z,98341.09
2022-10-25T16:20:04.244Z,98355.03
2022-10-25T16:23:06.461Z,98357.16
2022-10-25T16:26:20.836Z,98363.13
2022-10-25T16:29:25.110Z,98374.63
2022-10-25T16:32:27.123Z,98379.19
2022-10-25T16:35:30.074Z,98372.38
2022-10-25T16:38:32.170Z,98371.56
2022-10-25T16:41:39.265Z,98381.25
2022-10-25T16:44:41.135Z,98380.22
2022-10-25T16:47:43.348Z,98376.06
2022-10-25T16:50:45.813Z,98371.09
2022-10-25T16:53:48.686Z,98386.78
2022-10-25T16:56:51.623Z,98387.91
2022-10-25T16:59:53.977Z,98399.69
2022-10-25T17:02:56.130Z,98397.06
2022-10-25T17:06:00.350Z,98390.03
2022-10-25T17:09:06.040Z,98397.88
2022-10-25T17:12:11.929Z,98394.72
2022-10-25T17:15:15.003Z,98394.31
2022-10-25T17:18:21.279Z,98390.19
2022-10-25T17:21:24.036Z,98391.16
2022-10-25T17:24:26.357Z,98392.16
2022-10-25T17:27:42.150Z,98395.41
2022-10-25T17:30:44.670Z,98393.16
2022-10-25T17:33:46.862Z,98391.19
2022-10-25T17:39:59.451Z,98378.66
2022-10-25T17:43:01.714Z,98386.13
2022-10-25T17:46:26.162Z,98387.69
2022-10-25T17:49:28.232Z,98394.47
2022-10-25T17:52:30.665Z,98405.81
2022-10-25T17:55:34.779Z,98397.38
2022-10-25T17:58:39.728Z,98399.19
2022-10-25T18:01:45.168Z,98387.84
2022-10-25T18:05:02.159Z,98389.28
2022-10-25T18:08:14.003Z,98394.78
2022-10-25T18:11:22.717Z,98397.09
2022-10-25T18:14:25.198Z,98392.66
2022-10-25T18:17:28.003Z,98394.22
2022-10-25T18:20:30.302Z,98391.53
2022-10-25T18:23:33.366Z,98403.63
2022-10-25T18:26:35.490Z,98403.31
2022-10-25T18:29:37.885Z,98398.31
2022-10-25T18:32:40.393Z,98403.34
2022-10-25T18:35:42.974Z,98402.81
2022-10-25T18:38:49.195Z,98400.31
2022-10-25T18:41:51.257Z,98400.38
2022-10-25T18:44:55.656Z,98400.03
2022-10-25T18:48:01.593Z,98398.63
2022-10-25T18:51:05.396Z,98393.94
2022-10-25T18:54:10.752Z,98396.50
2022-10-25T18:57:18.739Z,98400.44
2022-10-25T19:00:26.660Z,98387.69
2022-10-25T19:03:29.360Z,98397.44
2022-10-25T19:06:32.066Z,98404.34
2022-10-25T19:09:34.487Z,98401.44
2022-10-25T19:12:36.763Z,98405.69
2022-10-25T19:15:39.177Z,98409.34
2022-10-25T19:18:44.249Z,98408.81
2022-10-25T19:21:47.053Z,98409.94
2022-10-25T19:24:50.055Z,98407.75
2022-10-25T19:27:52.657Z,98415.25
2022-10-25T19:30:54.819Z,98424.38
2022-10-25T19:34:00.600Z,98425.34
2022-10-25T19:37:04.945Z,98424.31
2022-10-25T19:40:08.521Z,98420.13
2022-10-25T19:43:10.395Z,98420.00
2022-10-25T19:46:13.353Z,98413.84
2022-10-25T19:49:15.484Z,98418.31
2022-10-25T19:52:18.075Z,98412.09
2022-10-25T19:55:20.394Z,98413.09
2022-10-25T19:58:22.705Z,98416.69
2022-10-25T20:01:27.501Z,98418.38
2022-10-25T20:04:29.761Z,98421.53
2022-10-25T20:07:32.440Z,98418.00
2022-10-25T20:10:34.616Z,98422.31
2022-10-25T20:13:37.840Z,98423.25
2022-10-25T20:16:40.032Z,98423.50
2022-10-25T20:19:41.933Z,98426.28
2022-10-25T20:22:44.204Z,98425.47
2022-10-25T20:25:46.325Z,98428.53
2022-10-25T20:28:49.396Z,98427.03
2022-10-25T20:31:52.005Z,98424.81
2022-10-25T20:34:54.067Z,98425.50
2022-10-25T20:37:56.789Z,98435.59
2022-10-25T20:41:07.480Z,98434.47
2022-10-25T20:44:10.115Z,98438.63
2022-10-25T20:47:12.208Z,98432.94
2022-10-25T20:50:14.296Z,98439.19
2022-10-25T20:53:16.955Z,98437.09
2022-10-25T20:56:21.072Z,98446.91
2022-10-25T20:59:22.983Z,98453.44
2022-10-25T21:02:25.137Z,98450.81
2022-10-25T21:05:27.851Z,98444.47
2022-10-25T21:08:30.291Z,98445.97
2022-10-25T21:11:33.008Z,98438.94
2022-10-25T21:14:34.768Z,98446.97
2022-10-25T21:17:37.882Z,98446.06
2022-10-25T21:20:39.889Z,98443.31
2022-10-25T21:23:42.062Z,98447.31
2022-10-25T21:26:44.344Z,98451.63
2022-10-25T21:29:46.477Z,98444.13
2022-10-25T21:32:48.703Z,98445.50
2022-10-25T21:35:51.061Z,98446.22
2022-10-25T21:38:55.112Z,98437.81
2022-10-25T21:41:57.208Z,98435.34
2022-10-25T21:44:59.044Z,98441.84
2022-10-25T21:48:01.662Z,98443.91
2022-10-25T21:51:04.123Z,98444.59
2022-10-25T21:54:06.458Z,98447.06
2022-10-25T21:57:08.746Z,98444.16
2022-10-25T22:00:11.986Z,98438.94
2022-10-25T22:03:17.121Z,98441.66
2022-10-25T22:06:20.645Z,98451.34
2022-10-25T22:09:23.519Z,98447.22
2022-10-25T22:12:25.418Z,98452.59
2022-10-25T22:15:27.752Z,98454.13
2022-10-25T22:18:29.556Z,98455.66
2022-10-25T22:21:37.883Z,98461.84
2022-10-25T22:24:39.768Z,98458.94
2022-10-25T22:27:41.778Z,98459.94
2022-10-25T22:30:44.439Z,98462.97
2022-10-25T22:33:46.347Z,98457.72
2022-10-25T22:36:48.847Z,98456.88
2022-10-25T22:39:50.827Z,98446.69
2022-10-25T22:42:52.583Z,98454.91
2022-10-25T22:45:54.930Z,98460.97
2022-10-25T22:48:59.357Z,98459.59
2022-10-25T22:52:01.711Z,98460.84
2022-10-25T22:55:04.055Z,98454.34
2022-10-25T22:58:05.846Z,98457.69
2022-10-25T23:01:12.966Z,98458.34
2022-10-25T23:04:14.675Z,98460.44
2022-10-25T23:07:16.930Z,98457.25
2022-10-25T23:10:19.033Z,98452.69
2022-10-25T23:13:21.311Z,98452.69
2022-10-25T23:16:24.015Z,98456.97
2022-10-25T23:19:25.703Z,98454.63
2022-10-25T23:22:28.675Z,98457.94
2022-10-25T23:25:32.984Z,98457.38
2022-10-25T23:28:36.117Z,98460.94
2022-10-25T23:31:37.929Z,98456.09
2022-10-25T23:34:39.982Z,98458.56
2022-10-25T23:37:42.040Z,98468.41
2022-10-25T23:40:46.893Z,98464.53
2022-10-25T23:43:49.075Z,98466.88
2022-10-25T23:46:51.051Z,98457.41
2022-10-25T23:49:53.814Z,98458.72
2022-10-25T23:52:55.832Z,98467.66
2022-10-25T23:55:57.823Z,98465.00
2022-10-25T23:58:59.663Z,98467.00
